Time;durP1;ratioP1;P1;durP2;ratioP2;P2;SDS_P1;SDS_P2;PMS_P1;PMS_P2;Temp;Humidity;BMP_temperature;BMP_pressure;BME280_temperature;BME280_humidity;BME280_pressure;Samples;Min_cycle;Max_cycle;Signal;HPM_P1;HPM_P2
2022/01/17 00:02:03;;;;;;;1.77;1.67;;;;;;;3.76;93.16;102485.97;5186567;28;20038;-81
2022/01/17 00:04:37;;;;;;;2.70;2.45;;;;;;;3.81;92.92;102477.47;5199515;28;20525;-80
2022/01/17 00:07:07;;;;;;;2.63;2.33;;;;;;;3.78;93.13;102476.53;5189109;28;20093;-81
2022/01/17 00:09:38;;;;;;;4.75;2.85;;;;;;;3.81;92.65;102480.94;5190171;28;20314;-81
2022/01/17 00:12:09;;;;;;;3.10;2.90;;;;;;;3.81;93.11;102474.88;5172347;28;20065;-81
2022/01/17 00:14:41;;;;;;;1.77;1.67;;;;;;;3.76;93.10;102477.31;5172565;28;20034;-82
2022/01/17 00:19:53;;;;;;;2.60;2.40;;;;;;;3.81;92.42;102500.84;5191451;28;20026;-81
2022/01/17 00:22:24;;;;;;;5.28;3.85;;;;;;;3.83;92.83;102497.44;5170955;28;20102;-82
2022/01/17 00:24:54;;;;;;;2.70;2.50;;;;;;;3.89;92.49;102505.41;5149653;28;20121;-81
2022/01/17 00:27:25;;;;;;;1.33;1.33;;;;;;;3.89;92.57;102515.78;5151289;28;20038;-81
2022/01/17 00:29:55;;;;;;;1.77;1.67;;;;;;;3.95;92.16;102522.88;5180234;28;20026;-80
2022/01/17 00:32:26;;;;;;;11.15;3.80;;;;;;;4.01;92.27;102528.25;5185689;28;20358;-81
2022/01/17 00:34:57;;;;;;;3.58;2.95;;;;;;;4.00;91.92;102536.91;5184024;28;20024;-81
2022/01/17 00:37:28;;;;;;;2.70;2.50;;;;;;;3.99;91.87;102532.56;5173459;28;20040;-81
2022/01/17 00:39:59;;;;;;;4.80;2.40;;;;;;;4.06;92.23;102534.50;5177125;28;20054;-82
2022/01/17 00:42:30;;;;;;;2.70;2.50;;;;;;;3.98;92.12;102524.69;5178394;28;20038;-81
2022/01/17 00:45:02;;;;;;;7.18;3.08;;;;;;;3.98;92.32;102529.88;5179682;28;20018;-82
2022/01/17 00:47:33;;;;;;;3.65;3.10;;;;;;;4.00;91.82;102539.50;5168114;28;20091;-81
2022/01/17 00:50:05;;;;;;;3.28;2.25;;;;;;;4.02;92.64;102543.00;5174658;28;20036;-81
2022/01/17 00:52:35;;;;;;;1.75;1.65;;;;;;;4.07;92.31;102543.16;5172963;28;20350;-81
2022/01/17 00:55:06;;;;;;;1.08;1.05;;;;;;;3.95;92.88;102535.88;5174095;28;20036;-81
2022/01/17 00:57:37;;;;;;;2.17;1.95;;;;;;;3.87;93.20;102534.78;5149945;28;20403;-81
2022/01/17 01:00:10;;;;;;;3.05;2.53;;;;;;;3.91;92.93;102521.91;5161864;28;20418;-81
2022/01/17 01:02:40;;;;;;;3.37;3.07;;;;;;;3.95;92.85;102530.69;5181799;28;20061;-81
2022/01/17 01:05:11;;;;;;;6.13;4.07;;;;;;;3.88;93.41;102520.94;5191638;28;20316;-81
2022/01/17 01:07:42;;;;;;;3.00;2.72;;;;;;;3.89;93.33;102518.38;5189899;28;20037;-80
2022/01/17 01:10:14;;;;;;;9.18;5.45;;;;;;;3.94;93.14;102516.81;5177849;28;20421;-82
2022/01/17 01:12:46;;;;;;;2.30;2.20;;;;;;;3.93;93.47;102514.16;5176658;28;20022;-81
2022/01/17 01:15:33;;;;;;;1.42;1.42;;;;;;;3.89;93.55;102512.31;5150694;28;20034;-82
2022/01/17 01:18:15;;;;;;;11.95;4.05;;;;;;;3.97;93.52;102522.97;5155195;28;20041;-82
2022/01/17 01:28:54;;;;;;;10.00;4.07;;;;;;;4.10;92.79;102551.03;5210440;28;20378;-81
2022/01/17 01:31:39;;;;;;;1.20;1.20;;;;;;;4.05;92.86;102548.31;5174569;28;20096;-81
2022/01/17 01:34:10;;;;;;;3.40;3.00;;;;;;;4.00;93.11;102539.50;5175199;28;20025;-81
2022/01/17 01:36:41;;;;;;;3.08;2.88;;;;;;;4.12;93.02;102533.78;5187880;28;20045;-81
2022/01/17 01:39:12;;;;;;;1.75;1.65;;;;;;;4.10;92.84;102530.25;5172481;28;20030;-81
2022/01/17 01:41:43;;;;;;;3.17;2.88;;;;;;;4.08;92.84;102516.34;5160118;28;20044;-81
2022/01/17 01:44:16;;;;;;;4.22;3.92;;;;;;;4.10;92.82;102518.13;5201620;28;20398;-82
2022/01/17 01:46:48;;;;;;;8.55;5.80;;;;;;;4.08;93.03;102527.63;5197173;28;20358;-81
2022/01/17 01:49:20;;;;;;;3.83;3.25;;;;;;;4.10;93.64;102525.06;5187443;28;20030;-81
2022/01/17 01:51:51;;;;;;;1.83;1.73;;;;;;;4.22;93.05;102527.13;5198239;28;20502;-81
2022/01/17 01:54:21;;;;;;;1.55;1.45;;;;;;;4.21;92.83;102533.16;5174465;28;20049;-81
2022/01/17 01:56:52;;;;;;;0.90;0.90;;;;;;;4.16;92.76;102535.63;5183520;28;20100;-81
2022/01/17 01:59:24;;;;;;;3.20;3.00;;;;;;;4.10;93.63;102536.31;5173779;28;20159;-81
2022/01/17 02:01:55;;;;;;;5.05;3.17;;;;;;;4.12;93.61;102540.69;5185601;28;20376;-81
2022/01/17 02:04:25;;;;;;;1.98;1.88;;;;;;;4.20;93.26;102542.69;5174498;28;20033;-82
2022/01/17 02:06:56;;;;;;;7.43;4.72;;;;;;;4.19;93.01;102558.22;5189157;28;20061;-81
2022/01/17 02:09:27;;;;;;;3.97;2.45;;;;;;;4.22;93.44;102566.97;5175123;28;20037;-81
2022/01/17 02:11:57;;;;;;;4.95;4.50;;;;;;;4.24;92.75;102569.63;5191742;28;20042;-81
2022/01/17 02:14:28;;;;;;;4.07;3.72;;;;;;;4.29;92.59;102560.25;5209582;28;20060;-82
2022/01/17 02:17:05;;;;;;;5.43;3.47;;;;;;;4.24;92.90;102548.84;5189076;28;20074;-82
2022/01/17 02:19:44;;;;;;;3.33;3.13;;;;;;;4.25;93.34;102542.81;5184450;28;20064;-82
2022/01/17 02:22:15;;;;;;;4.90;2.88;;;;;;;4.25;92.77;102541.09;5154812;28;20054;-82
2022/01/17 02:24:46;;;;;;;2.38;2.22;;;;;;;4.30;92.99;102549.00;5167013;28;20481;-82
2022/01/17 02:27:16;;;;;;;2.47;2.28;;;;;;;4.29;93.28;102547.25;5171623;28;20073;-82
2022/01/17 02:29:47;;;;;;;1.67;1.58;;;;;;;4.33;93.19;102553.41;5172527;28;20049;-81
2022/01/17 02:32:18;;;;;;;2.65;2.50;;;;;;;4.37;93.04;102545.75;5167098;28;20050;-81
2022/01/17 02:34:48;;;;;;;3.25;3.05;;;;;;;4.47;92.54;102557.28;5164680;28;20545;-82
2022/01/17 02:37:19;;;;;;;2.97;2.63;;;;;;;4.43;92.01;102546.75;5175865;28;20397;-81
2022/01/17 02:39:49;;;;;;;9.25;3.33;;;;;;;4.39;92.10;102544.06;5187899;28;20498;-83
2022/01/17 02:42:21;;;;;;;1.40;1.35;;;;;;;4.37;92.36;102539.69;5199733;28;20088;-81
2022/01/17 02:44:55;;;;;;;2.78;2.63;;;;;;;4.43;93.00;102538.94;5176136;28;20128;-81
2022/01/17 02:47:25;;;;;;;4.55;3.33;;;;;;;4.44;92.06;102538.09;5173470;28;20128;-82
2022/01/17 02:49:56;;;;;;;16.30;4.47;;;;;;;4.45;92.16;102540.78;5147205;28;20173;-82
2022/01/17 02:52:26;;;;;;;18.98;4.63;;;;;;;4.48;92.36;102533.03;5157299;28;20034;-82
2022/01/17 02:54:57;;;;;;;2.25;2.13;;;;;;;4.50;91.91;102541.78;5172007;28;20030;-82
2022/01/17 02:57:31;;;;;;;2.20;2.08;;;;;;;4.38;93.02;102542.31;5180857;28;20161;-82
2022/01/17 03:00:04;;;;;;;4.05;3.72;;;;;;;4.45;92.76;102543.38;5180856;28;20497;-82
2022/01/17 03:02:34;;;;;;;3.38;3.15;;;;;;;4.47;92.40;102546.00;5205809;28;20091;-82
2022/01/17 03:05:09;;;;;;;1.50;1.50;;;;;;;4.41;92.78;102545.00;5191444;28;20049;-82
2022/01/17 03:07:39;;;;;;;4.25;3.58;;;;;;;4.41;92.88;102538.91;5193981;28;20124;-83
2022/01/17 03:10:43;;;;;;;3.00;2.80;;;;;;;4.41;92.10;102526.81;5176233;28;20370;-81
2022/01/17 03:13:31;;;;;;;4.85;3.95;;;;;;;4.39;92.75;102536.28;5206801;28;20479;-82
2022/01/17 03:16:19;;;;;;;2.28;2.08;;;;;;;4.51;92.59;102534.84;5193928;28;20603;-82
2022/01/17 03:18:56;;;;;;;3.15;2.88;;;;;;;4.52;91.98;102528.81;5202041;28;20517;-81
2022/01/17 03:21:38;;;;;;;4.97;4.63;;;;;;;4.49;91.91;102523.53;5196338;28;20106;-83
2022/01/17 03:24:20;;;;;;;3.45;3.17;;;;;;;4.44;92.70;102525.13;5191029;28;20076;-82
2022/01/17 03:27:07;;;;;;;3.53;3.33;;;;;;;4.47;92.24;102510.47;5127107;28;20034;-82
2022/01/17 03:30:06;;;;;;;3.83;3.30;;;;;;;4.48;92.09;102524.38;5192635;28;20111;-82
2022/01/17 03:34:04;;;;;;;;;;;;;;;;;;;;;
2022/01/17 03:37:03;;;;;;;2.80;1.92;;;;;;;4.51;92.28;102545.22;5153939;28;20065;-82
2022/01/17 03:39:33;;;;;;;2.42;2.33;;;;;;;4.59;92.01;102538.53;5162728;28;20061;-82
2022/01/17 03:42:04;;;;;;;4.20;3.97;;;;;;;4.55;91.92;102539.28;5184577;28;20042;-82
2022/01/17 03:44:35;;;;;;;3.63;2.97;;;;;;;4.52;92.03;102537.50;5175127;28;20056;-83
2022/01/17 03:47:08;;;;;;;4.47;4.13;;;;;;;4.55;91.88;102528.91;5193589;28;20056;-82
2022/01/17 03:49:41;;;;;;;4.75;4.35;;;;;;;4.52;92.19;102527.09;5178446;28;20556;-82
2022/01/17 03:52:12;;;;;;;6.88;4.05;;;;;;;4.51;92.11;102538.34;5199995;28;20049;-83
2022/01/17 03:54:43;;;;;;;3.42;3.22;;;;;;;4.54;92.30;102545.34;5190522;28;20425;-82
2022/01/17 03:57:13;;;;;;;3.30;3.08;;;;;;;4.49;92.09;102546.94;5175989;28;20045;-82
2022/01/17 03:59:44;;;;;;;2.10;1.85;;;;;;;4.57;91.79;102545.44;5191886;28;20018;-82
2022/01/17 04:02:14;;;;;;;2.00;1.90;;;;;;;4.55;91.50;102549.69;5181697;28;20052;-82
2022/01/17 04:04:45;;;;;;;1.83;1.73;;;;;;;4.50;91.34;102543.50;5186741;28;20068;-83
2022/01/17 04:07:15;;;;;;;4.55;4.18;;;;;;;4.57;91.29;102550.63;5176555;28;20037;-82
2022/01/17 04:09:46;;;;;;;2.47;2.30;;;;;;;4.46;91.55;102546.84;5203561;28;20033;-82
2022/01/17 04:12:16;;;;;;;2.40;2.25;;;;;;;4.54;90.98;102542.72;5165156;28;20054;-82
2022/01/17 04:14:47;;;;;;;1.83;1.73;;;;;;;4.46;91.47;102552.03;5174049;28;20033;-82
2022/01/17 04:17:18;;;;;;;4.63;4.25;;;;;;;4.47;90.96;102553.81;5166750;28;20657;-82
2022/01/17 04:19:52;;;;;;;1.88;1.77;;;;;;;4.48;90.93;102563.38;5152319;28;20029;-82
2022/01/17 04:22:22;;;;;;;3.00;2.70;;;;;;;4.53;90.50;102569.56;5182083;28;20516;-81
2022/01/17 04:24:53;;;;;;;3.42;3.17;;;;;;;4.46;90.86;102560.72;5203799;28;20388;-82
2022/01/17 04:27:23;;;;;;;2.20;2.10;;;;;;;4.49;90.59;102559.94;5177662;28;20709;-81
2022/01/17 04:29:54;;;;;;;5.05;3.20;;;;;;;4.57;90.48;102564.50;5192232;28;20045;-81
2022/01/17 04:32:25;;;;;;;2.25;2.15;;;;;;;4.57;90.29;102555.81;5203759;28;20069;-82
2022/01/17 04:34:55;;;;;;;1.80;1.70;;;;;;;4.57;90.29;102558.44;5180432;28;20032;-81
2022/01/17 04:37:26;;;;;;;3.63;3.35;;;;;;;4.49;90.82;102566.00;5186925;28;20045;-81
2022/01/17 04:39:56;;;;;;;4.57;3.55;;;;;;;4.48;90.62;102563.38;5187476;28;20068;-81
2022/01/17 04:42:28;;;;;;;2.08;1.98;;;;;;;4.43;90.84;102570.13;5159049;28;20043;-82
2022/01/17 04:45:07;;;;;;;5.93;2.63;;;;;;;4.59;91.29;102571.47;5156501;28;20065;-82
2022/01/17 04:47:40;;;;;;;2.15;2.00;;;;;;;4.52;90.93;102578.19;5158215;28;20101;-82
2022/01/17 04:50:15;;;;;;;4.07;3.78;;;;;;;4.64;90.76;102575.94;5160208;28;20349;-82
2022/01/17 04:52:47;;;;;;;2.80;2.60;;;;;;;4.62;90.76;102576.75;5191082;28;20124;-82
2022/01/17 04:55:19;;;;;;;4.80;3.33;;;;;;;4.61;90.87;102580.19;5204854;28;20021;-82
2022/01/17 04:57:50;;;;;;;2.22;2.13;;;;;;;4.48;90.54;102573.75;5184403;28;20672;-82
2022/01/17 05:00:21;;;;;;;4.55;4.25;;;;;;;4.61;90.86;102577.59;5172043;28;20133;-82
2022/01/17 05:02:53;;;;;;;2.08;1.98;;;;;;;4.55;91.12;102575.69;5193414;28;20049;-81
2022/01/17 05:05:24;;;;;;;3.33;3.10;;;;;;;4.54;90.48;102579.13;5210492;28;20049;-82
2022/01/17 05:08:06;;;;;;;5.32;3.65;;;;;;;4.59;90.81;102582.72;5195764;28;20116;-80
2022/01/17 05:10:42;;;;;;;1.52;1.48;;;;;;;4.57;91.11;102581.81;5169581;28;20517;-81
2022/01/17 05:13:20;;;;;;;5.13;2.75;;;;;;;4.60;90.75;102574.09;5187164;28;20101;-81
2022/01/17 05:16:04;;;;;;;1.85;1.75;;;;;;;4.47;90.52;102582.41;5183036;28;20046;-78
2022/01/17 05:21:06;;;;;;;1.60;1.55;;;;;;;4.48;90.50;102586.75;5194353;28;20033;-77
2022/01/17 05:23:36;;;;;;;2.30;2.20;;;;;;;4.54;90.25;102584.31;5172701;28;20033;-78
2022/01/17 05:26:07;;;;;;;2.38;2.28;;;;;;;4.50;89.94;102582.50;5186970;28;20049;-77
2022/01/17 05:28:37;;;;;;;1.55;1.50;;;;;;;4.52;89.19;102593.78;5180733;28;20033;-78
2022/01/17 05:31:08;;;;;;;1.35;1.30;;;;;;;4.54;89.86;102598.22;5189628;28;20057;-78
2022/01/17 05:33:38;;;;;;;9.98;4.00;;;;;;;4.46;89.35;102602.31;5196267;28;20611;-78
2022/01/17 05:36:09;;;;;;;2.35;2.25;;;;;;;4.55;88.87;102612.09;5190805;28;20034;-78
2022/01/17 05:38:39;;;;;;;2.33;2.22;;;;;;;4.50;88.90;102611.09;5191501;28;20617;-78
2022/01/17 05:41:10;;;;;;;2.00;1.90;;;;;;;4.45;89.19;102605.75;5192762;28;20029;-78
2022/01/17 05:43:40;;;;;;;3.20;2.97;;;;;;;4.51;88.98;102612.81;5191311;28;20045;-78
2022/01/17 05:46:11;;;;;;;2.58;2.38;;;;;;;4.63;89.20;102620.13;5190541;28;20045;-78
2022/01/17 05:48:41;;;;;;;3.88;2.38;;;;;;;4.59;88.38;102623.47;5162416;28;20030;-77
2022/01/17 05:51:12;;;;;;;3.47;2.72;;;;;;;4.53;89.15;102625.06;5176832;28;20046;-77
2022/01/17 05:53:42;;;;;;;0.93;0.93;;;;;;;4.48;88.75;102607.56;5195814;28;20103;-78
2022/01/17 05:56:13;;;;;;;2.25;2.05;;;;;;;4.41;89.66;102610.00;5177376;28;20128;-77
2022/01/17 05:58:43;;;;;;;2.65;2.53;;;;;;;4.38;89.30;102596.91;5196464;28;20045;-78
2022/01/17 06:01:15;;;;;;;3.10;2.90;;;;;;;4.40;89.06;102590.03;5162926;28;20446;-78
2022/01/17 06:03:45;;;;;;;3.88;3.60;;;;;;;4.36;89.24;102592.50;5187400;28;20031;-78
2022/01/17 06:06:16;;;;;;;2.38;2.17;;;;;;;4.40;89.51;102595.22;5187748;28;20426;-78
2022/01/17 06:08:46;;;;;;;4.03;2.92;;;;;;;4.44;89.44;102600.50;5196988;28;20044;-78
2022/01/17 06:11:17;;;;;;;3.28;3.08;;;;;;;4.42;89.39;102600.47;5195046;28;20064;-78
2022/01/17 06:13:47;;;;;;;3.70;2.13;;;;;;;4.50;89.13;102595.50;5181198;28;20036;-79
2022/01/17 06:16:20;;;;;;;1.30;1.30;;;;;;;4.53;89.26;102592.97;5177363;28;20036;-78
2022/01/17 06:18:51;;;;;;;5.20;4.65;;;;;;;4.46;89.38;102596.22;5180231;28;20332;-79
2022/01/17 06:21:22;;;;;;;3.72;2.58;;;;;;;4.42;89.63;102600.47;5194088;28;20769;-78
2022/01/17 06:23:53;;;;;;;1.75;1.45;;;;;;;4.45;89.38;102600.56;5192051;28;20064;-78
2022/01/17 06:26:23;;;;;;;4.80;2.58;;;;;;;4.53;88.87;102601.66;5173581;28;20045;-78
2022/01/17 06:28:54;;;;;;;3.85;2.90;;;;;;;4.55;89.43;102614.69;5197454;28;20448;-79
2022/01/17 06:31:24;;;;;;;6.10;4.22;;;;;;;4.51;89.10;102621.53;5200506;28;20040;-78
2022/01/17 06:33:56;;;;;;;1.98;1.88;;;;;;;4.54;89.00;102618.13;5191128;28;20061;-78
2022/01/17 06:36:27;;;;;;;1.73;1.67;;;;;;;4.52;88.74;102622.38;5192944;28;20052;-78
2022/01/17 06:38:57;;;;;;;2.78;2.65;;;;;;;4.49;89.05;102614.53;5187159;28;20033;-78
2022/01/17 06:41:28;;;;;;;1.98;1.88;;;;;;;4.59;88.57;102618.25;5189971;28;20117;-78
2022/01/17 06:43:58;;;;;;;2.92;2.30;;;;;;;4.57;89.07;102615.63;5189955;28;20401;-78
2022/01/17 06:46:29;;;;;;;1.38;1.38;;;;;;;4.65;89.13;102611.53;5163839;28;20491;-79
2022/01/17 06:49:00;;;;;;;6.47;3.40;;;;;;;4.58;88.94;102627.78;5202424;28;20029;-78
2022/01/17 06:51:30;;;;;;;1.75;1.65;;;;;;;4.59;89.06;102613.91;5186565;28;20262;-78
2022/01/17 06:54:03;;;;;;;2.83;2.58;;;;;;;4.61;88.67;102614.84;5177376;28;20164;-79
2022/01/17 06:56:33;;;;;;;1.83;1.75;;;;;;;4.55;89.09;102614.69;5194706;28;20045;-77
2022/01/17 06:59:04;;;;;;;3.60;3.30;;;;;;;4.57;89.11;102620.81;5195873;28;20702;-78
2022/01/17 07:01:38;;;;;;;2.63;2.53;;;;;;;4.57;88.82;102632.09;5173617;28;20041;-78
2022/01/17 07:04:09;;;;;;;2.10;2.00;;;;;;;4.56;89.25;102634.66;5179587;28;20057;-78
2022/01/17 07:06:40;;;;;;;4.72;3.80;;;;;;;4.57;88.91;102647.69;5176255;28;20588;-78
2022/01/17 07:09:14;;;;;;;2.10;2.00;;;;;;;4.62;88.96;102653.03;5197333;28;20275;-79
2022/01/17 07:11:45;;;;;;;2.85;2.65;;;;;;;4.57;88.53;102662.41;5195973;28;20041;-79
2022/01/17 07:14:15;;;;;;;2.35;2.25;;;;;;;4.61;88.68;102685.06;5168531;28;20462;-79
2022/01/17 07:16:46;;;;;;;3.95;3.50;;;;;;;4.60;89.14;102672.03;5192814;28;20042;-78
2022/01/17 07:19:16;;;;;;;0.95;0.95;;;;;;;4.61;88.85;102647.78;5164579;28;20041;-79
2022/01/17 07:21:48;;;;;;;1.70;1.58;;;;;;;4.60;88.65;102640.81;5189162;28;20046;-79
2022/01/17 07:24:18;;;;;;;1.95;1.85;;;;;;;4.64;88.33;102633.16;5186021;28;20080;-79
2022/01/17 07:26:49;;;;;;;0.90;0.90;;;;;;;4.60;88.24;102636.50;5193231;28;20080;-78
2022/01/17 07:29:19;;;;;;;2.50;2.15;;;;;;;4.63;88.37;102621.00;5200089;28;20033;-77
2022/01/17 07:31:50;;;;;;;2.53;2.33;;;;;;;4.61;88.66;102606.19;5196721;28;20122;-77
2022/01/17 07:34:22;;;;;;;9.23;5.35;;;;;;;4.63;88.29;102605.38;5187851;28;20029;-78
2022/01/17 07:36:52;;;;;;;2.67;2.50;;;;;;;4.78;87.98;102624.84;5175716;28;20067;-77
2022/01/17 07:39:23;;;;;;;2.33;2.22;;;;;;;4.80;87.55;102625.78;5196488;28;20053;-78
2022/01/17 07:41:53;;;;;;;1.52;1.50;;;;;;;4.69;88.33;102620.28;5196615;28;20470;-78
2022/01/17 07:44:28;;;;;;;12.20;5.53;;;;;;;4.73;87.90;102620.41;5168729;28;20592;-78
2022/01/17 07:47:00;;;;;;;15.02;3.92;;;;;;;4.69;88.34;102618.56;5195837;28;20053;-78
2022/01/17 07:49:32;;;;;;;3.72;3.42;;;;;;;4.76;88.05;102613.50;5183692;28;20041;-78
2022/01/17 07:52:06;;;;;;;2.67;1.98;;;;;;;4.68;87.47;102598.59;5193739;28;20628;-78
2022/01/17 07:54:43;;;;;;;6.55;3.92;;;;;;;4.76;88.22;102605.72;5194910;28;20042;-77
2022/01/17 07:57:14;;;;;;;4.78;2.65;;;;;;;4.88;86.96;102606.94;5181391;28;20041;-77
2022/01/17 07:59:44;;;;;;;3.85;3.55;;;;;;;4.87;87.57;102609.50;5166343;28;20533;-77
2022/01/17 08:02:15;;;;;;;1.65;1.58;;;;;;;4.73;87.65;102614.31;5197986;28;20037;-77
2022/01/17 08:04:45;;;;;;;2.10;2.00;;;;;;;4.76;87.52;102616.13;5198827;28;20041;-78
2022/01/17 08:07:16;;;;;;;1.70;1.60;;;;;;;4.78;87.28;102620.53;5176748;28;20564;-77
2022/01/17 08:09:46;;;;;;;5.47;4.72;;;;;;;4.76;87.58;102626.50;5176061;28;20552;-77
2022/01/17 08:12:17;;;;;;;2.10;2.00;;;;;;;4.82;87.29;102642.31;5178550;28;20049;-78
2022/01/17 08:14:47;;;;;;;2.90;2.70;;;;;;;4.86;87.24;102650.25;5168910;28;20580;-78
2022/01/17 08:17:20;;;;;;;7.45;1.83;;;;;;;4.78;87.40;102656.94;5173296;28;20037;-78
2022/01/17 08:19:51;;;;;;;1.63;1.13;;;;;;;4.73;87.56;102659.41;5215346;28;20029;-78
2022/01/17 08:22:22;;;;;;;2.72;1.90;;;;;;;4.85;87.80;102676.19;5194022;28;20037;-78
2022/01/17 08:24:52;;;;;;;2.13;1.98;;;;;;;4.84;88.28;102683.13;5208809;28;20505;-77
2022/01/17 08:27:23;;;;;;;3.47;3.17;;;;;;;4.87;87.35;102693.63;5196458;28;20440;-78
2022/01/17 08:29:54;;;;;;;3.05;2.40;;;;;;;4.85;88.20;102684.91;5182917;28;20032;-75
2022/01/17 08:32:28;;;;;;;3.22;2.97;;;;;;;4.93;87.96;102692.91;5180185;28;20041;-77
2022/01/17 08:35:00;;;;;;;4.88;2.45;;;;;;;4.89;88.77;102686.72;5181804;28;20367;-77
2022/01/17 08:37:30;;;;;;;3.67;2.78;;;;;;;4.83;88.85;102686.56;5193312;28;20041;-77
2022/01/17 08:40:04;;;;;;;1.20;1.20;;;;;;;4.78;89.11;102676.88;5198343;28;20059;-76
2022/01/17 08:42:37;;;;;;;3.40;3.20;;;;;;;4.79;89.19;102686.44;5181487;28;20312;-77
2022/01/17 08:45:10;;;;;;;1.73;1.63;;;;;;;4.86;89.40;102686.66;5206362;28;20410;-77
2022/01/17 08:47:46;;;;;;;2.25;2.13;;;;;;;4.84;89.17;102692.63;5195014;28;20096;-77
2022/01/17 08:50:19;;;;;;;2.40;2.25;;;;;;;4.84;89.04;102688.34;5183389;28;20068;-77
2022/01/17 08:52:49;;;;;;;3.45;3.25;;;;;;;4.87;89.22;102683.22;5192898;28;20116;-77
2022/01/17 08:55:22;;;;;;;2.70;2.50;;;;;;;4.91;89.09;102678.09;5192804;28;20040;-77
2022/01/17 08:57:52;;;;;;;4.07;3.63;;;;;;;4.88;90.33;102678.88;5180279;28;20475;-77
2022/01/17 09:00:23;;;;;;;5.13;3.35;;;;;;;4.95;89.30;102685.16;5189816;28;20041;-78
2022/01/17 09:02:53;;;;;;;9.18;3.85;;;;;;;4.94;90.00;102683.38;5187508;28;20044;-77
2022/01/17 09:05:24;;;;;;;1.98;1.88;;;;;;;5.04;89.38;102685.41;5178684;28;20030;-77
2022/01/17 09:07:57;;;;;;;1.75;1.65;;;;;;;4.97;89.54;102692.16;5180780;28;20456;-77
2022/01/17 09:10:28;;;;;;;;;;;;;;;5.04;89.71;102686.28;5198791;28;20033;-78
2022/01/17 09:12:59;;;;;;;3.38;3.17;;;;;;;5.02;89.17;102698.38;5200014;28;19962;-78
2022/01/17 09:15:30;;;;;;;5.18;4.57;;;;;;;5.11;89.04;102702.06;5185589;28;20103;-78
2022/01/17 09:18:01;;;;;;;3.65;3.40;;;;;;;5.11;89.27;102709.88;5181593;28;20025;-78
2022/01/17 09:20:34;;;;;;;2.55;2.35;;;;;;;5.09;89.65;102703.72;5180738;28;20047;-78
2022/01/17 09:23:05;;;;;;;;;;;;;;;5.06;90.27;102699.31;5169814;28;20056;-79
2022/01/17 09:25:35;;;;;;;8.18;3.58;;;;;;;5.09;89.38;102682.91;5171154;28;19913;-78
2022/01/17 09:28:06;;;;;;;3.08;2.90;;;;;;;5.09;89.76;102683.81;5199521;28;20021;-78
2022/01/17 09:30:37;;;;;;;2.35;2.25;;;;;;;5.11;90.61;102676.03;5183292;28;20029;-78
2022/01/17 09:33:08;;;;;;;2.65;2.45;;;;;;;5.16;90.31;102684.88;5191843;28;20269;-78
2022/01/17 09:35:38;;;;;;;2.65;2.45;;;;;;;5.18;90.25;102684.06;5193850;28;20044;-78
2022/01/17 09:38:09;;;;;;;1.85;1.75;;;;;;;5.25;89.74;102699.84;5176729;28;20017;-79
2022/01/17 09:40:40;;;;;;;17.20;5.65;;;;;;;5.21;90.18;102717.09;5174630;28;20025;-78
2022/01/17 09:43:10;;;;;;;3.20;2.80;;;;;;;5.22;89.98;102721.47;5194405;28;20034;-78
2022/01/17 09:45:44;;;;;;;1.80;1.67;;;;;;;5.30;89.79;102730.34;5194655;28;20067;-78
2022/01/17 09:48:19;;;;;;;5.25;2.95;;;;;;;5.29;89.48;102732.94;5202916;28;20595;-77
2022/01/17 09:51:08;;;;;;;4.50;4.18;;;;;;;5.31;89.47;102737.34;5195444;28;20045;-78
2022/01/17 09:53:39;;;;;;;2.53;2.33;;;;;;;5.42;89.19;102752.34;5196763;28;20029;-78
2022/01/17 09:56:12;;;;;;;2.42;2.22;;;;;;;5.41;88.92;102764.47;5190069;28;20068;-77
2022/01/17 09:58:43;;;;;;;3.63;3.35;;;;;;;5.43;88.57;102775.84;5199525;28;20276;-77
2022/01/17 10:01:13;;;;;;;1.95;1.85;;;;;;;5.49;88.96;102768.19;5191824;28;20541;-77
2022/01/17 10:03:48;;;;;;;4.03;2.70;;;;;;;5.50;88.96;102780.38;5181461;28;20018;-77
2022/01/17 10:06:19;;;;;;;2.80;2.60;;;;;;;5.51;89.00;102781.22;5168766;28;20571;-78
2022/01/17 10:09:21;;;;;;;3.15;2.95;;;;;;;5.53;88.46;102742.22;5158554;28;20037;-77
2022/01/17 10:12:01;;;;;;;3.30;3.00;;;;;;;5.57;88.37;102751.88;5164166;28;20033;-78
2022/01/17 10:14:36;;;;;;;3.45;2.53;;;;;;;5.66;88.26;102752.13;5189088;28;20406;-78
2022/01/17 10:17:12;;;;;;;1.83;1.73;;;;;;;5.56;88.01;102735.38;5173677;28;20288;-77
2022/01/17 10:19:44;;;;;;;1.95;1.85;;;;;;;5.64;88.30;102730.34;5178521;28;20387;-77
2022/01/17 10:22:26;;;;;;;2.42;2.22;;;;;;;5.66;88.30;102739.09;5178148;28;20041;-79
2022/01/17 10:25:20;;;;;;;15.73;4.63;;;;;;;5.64;87.69;102719.94;5185514;28;20029;-78
2022/01/17 10:37:00;;;;;;;1.02;1.02;;;;;;;5.83;87.62;102757.75;5193701;28;20040;-78
2022/01/17 10:39:37;;;;;;;2.40;2.30;;;;;;;5.93;87.45;102774.50;5182568;28;20033;-78
2022/01/17 10:42:28;;;;;;;5.72;2.55;;;;;;;5.88;87.11;102766.59;5181580;28;20033;-78
2022/01/17 10:45:12;;;;;;;2.90;2.70;;;;;;;5.92;87.80;102777.97;5208650;28;20037;-78
2022/01/17 10:47:44;;;;;;;1.27;1.27;;;;;;;5.92;87.81;102778.81;5161798;28;20057;-78
2022/01/17 10:50:18;;;;;;;2.13;1.98;;;;;;;5.94;87.62;102771.94;5212567;28;20127;-78
2022/01/17 10:52:51;;;;;;;2.22;2.03;;;;;;;5.92;87.39;102772.75;5196515;28;20045;-78
2022/01/17 10:55:45;;;;;;;2.22;2.03;;;;;;;5.96;87.53;102775.47;5176341;28;20393;-78
2022/01/17 10:58:21;;;;;;;1.70;1.60;;;;;;;5.97;88.07;102777.25;5173776;28;20096;-79
2022/01/17 11:00:58;;;;;;;2.80;2.60;;;;;;;5.93;87.42;102780.59;5192780;28;20492;-78
2022/01/17 11:03:31;;;;;;;0.90;0.90;;;;;;;6.08;87.80;102772.31;5181678;28;20048;-78
2022/01/17 11:06:06;;;;;;;3.10;2.75;;;;;;;6.01;87.71;102767.81;5190850;28;20389;-78
2022/01/17 11:08:39;;;;;;;3.42;3.22;;;;;;;6.05;87.96;102768.75;5195987;28;20105;-78
2022/01/17 11:11:10;;;;;;;1.52;1.48;;;;;;;5.96;88.53;102775.47;5205993;28;20033;-78
2022/01/17 11:13:47;;;;;;;4.20;2.78;;;;;;;6.07;88.00;102787.94;5192916;28;20124;-77
2022/01/17 11:16:20;;;;;;;1.92;1.77;;;;;;;6.04;88.69;102782.63;5173147;28;20049;-78
2022/01/17 11:18:58;;;;;;;;;;;;;;;6.05;88.53;102785.25;5179754;28;20029;-78
2022/01/17 11:21:29;;;;;;;2.38;2.17;;;;;;;6.06;88.52;102791.38;5175131;28;20007;-78
2022/01/17 11:24:01;;;;;;;3.38;2.80;;;;;;;6.09;88.56;102779.31;5209378;28;20112;-78
2022/01/17 11:26:31;;;;;;;4.68;4.18;;;;;;;6.08;88.62;102782.75;5193428;28;20041;-77
2022/01/17 11:29:02;;;;;;;3.28;2.97;;;;;;;6.09;88.32;102775.78;5185234;28;20136;-78
2022/01/17 11:31:32;;;;;;;4.95;3.70;;;;;;;6.14;88.33;102763.78;5188723;28;20681;-77
2022/01/17 11:34:09;;;;;;;2.22;2.13;;;;;;;6.23;88.19;102765.72;5191760;28;20489;-78
2022/01/17 11:36:40;;;;;;;1.88;1.77;;;;;;;6.19;88.09;102758.69;5198288;28;20060;-77
2022/01/17 11:39:15;;;;;;;3.10;2.90;;;;;;;6.16;88.19;102751.63;5181867;28;20121;-77
2022/01/17 11:41:49;;;;;;;2.38;2.28;;;;;;;6.07;88.50;102759.25;5211354;28;20413;-78
2022/01/17 11:44:34;;;;;;;2.28;2.08;;;;;;;6.06;88.16;102767.91;5195693;28;20036;-78
2022/01/17 11:47:04;;;;;;;3.85;3.17;;;;;;;6.15;88.25;102770.75;5177314;28;20411;-78
2022/01/17 11:49:40;;;;;;;1.98;1.88;;;;;;;6.16;88.27;102782.91;5213062;28;20083;-78
2022/01/17 11:52:28;;;;;;;1.48;1.45;;;;;;;6.12;87.99;102792.38;5190493;28;20041;-78
2022/01/17 11:54:59;;;;;;;2.58;2.38;;;;;;;6.07;88.10;102788.81;5173635;28;20043;-78
2022/01/17 11:57:30;;;;;;;2.22;2.13;;;;;;;6.08;88.52;102784.44;5193361;28;20502;-78
2022/01/17 12:00:05;;;;;;;1.63;1.52;;;;;;;6.16;87.95;102787.25;5196316;28;20124;-78
2022/01/17 12:02:39;;;;;;;2.78;2.58;;;;;;;6.19;88.25;102783.00;5166304;28;20047;-78
2022/01/17 12:05:13;;;;;;;;;;;;;;;6.14;87.91;102780.28;5194706;28;20506;-78
2022/01/17 12:07:44;;;;;;;3.90;3.60;;;;;;;6.10;88.31;102778.47;5202744;28;19917;-78
2022/01/17 12:10:21;;;;;;;0.82;0.80;;;;;;;6.12;88.21;102771.53;5199141;28;20033;-78
2022/01/17 12:13:21;;;;;;;2.20;2.03;;;;;;;6.12;88.06;102758.50;5176663;28;20457;-78
2022/01/17 12:16:11;;;;;;;2.78;2.10;;;;;;;6.16;87.98;102740.34;5211560;28;20453;-78
2022/01/17 12:18:49;;;;;;;1.77;1.67;;;;;;;6.13;87.94;102733.34;5212681;28;20506;-79
2022/01/17 12:21:28;;;;;;;2.35;2.15;;;;;;;6.09;87.48;102742.81;5188599;28;20386;-78
2022/01/17 12:24:14;;;;;;;1.42;1.33;;;;;;;6.25;87.60;102764.03;5149889;28;20242;-78
2022/01/17 12:26:54;;;;;;;1.58;1.48;;;;;;;6.16;87.73;102785.53;5188281;28;20148;-78
2022/01/17 12:29:53;;;;;;;1.17;1.17;;;;;;;6.15;88.16;102781.19;5167233;28;20532;-78